sensor_id;sensor_type;location;lat;lon;timestamp;temperature;humidity
9662;DHT22;24982;52.344;12.990;2023-08-06T00:00:07;18.80;99.90
9662;DHT22;24982;52.344;12.990;2023-08-06T00:03:10;18.90;99.90
9662;DHT22;24982;52.344;12.990;2023-08-06T00:06:13;18.90;99.90
9662;DHT22;24982;52.344;12.990;2023-08-06T00:09:15;18.90;99.90
9662;DHT22;24982;52.344;12.990;2023-08-06T00:12:17;18.90;99.90
9662;DHT22;24982;52.344;12.990;2023-08-06T00:15:19;18.90;99.90
9662;DHT22;24982;52.344;12.990;2023-08-06T00:18:21;18.90;99.90
9662;DHT22;24982;52.344;12.990;2023-08-06T00:21:24;18.90;99.90
9662;DHT22;24982;52.344;12.990;2023-08-06T00:24:26;18.90;99.90
9662;DHT22;24982;52.344;12.990;2023-08-06T00:27:28;19.80;99.90
9662;DHT22;24982;52.344;12.990;2023-08-06T00:30:31;18.90;99.90
9662;DHT22;24982;52.344;12.990;2023-08-06T00:33:33;18.90;99.90
9662;DHT22;24982;52.344;12.990;2023-08-06T00:36:37;18.90;99.90
9662;DHT22;24982;52.344;12.990;2023-08-06T00:39:39;18.90;99.90
9662;DHT22;24982;52.344;12.990;2023-08-06T00:42:41;18.90;99.90
9662;DHT22;24982;52.344;12.990;2023-08-06T00:45:44;18.80;99.90
9662;DHT22;24982;52.344;12.990;2023-08-06T00:48:46;18.90;99.90
9662;DHT22;24982;52.344;12.990;2023-08-06T00:51:50;18.90;99.90
9662;DHT22;24982;52.344;12.990;2023-08-06T00:54:52;18.90;99.90
9662;DHT22;24982;52.344;12.990;2023-08-06T00:57:54;19.00;99.90
9662;DHT22;24982;52.344;12.990;2023-08-06T01:00:57;18.90;99.90
9662;DHT22;24982;52.344;12.990;2023-08-06T01:03:59;18.90;99.90
9662;DHT22;24982;52.344;12.990;2023-08-06T01:07:09;18.80;99.90
9662;DHT22;24982;52.344;12.990;2023-08-06T01:10:23;18.90;99.90
9662;DHT22;24982;52.344;12.990;2023-08-06T01:13:31;18.90;99.90
9662;DHT22;24982;52.344;12.990;2023-08-06T01:16:33;18.90;99.90
9662;DHT22;24982;52.344;12.990;2023-08-06T01:19:37;18.80;99.90
9662;DHT22;24982;52.344;12.990;2023-08-06T01:22:40;18.80;99.90
9662;DHT22;24982;52.344;12.990;2023-08-06T01:25:47;18.80;99.90
9662;DHT22;24982;52.344;12.990;2023-08-06T01:28:56;18.80;99.90
9662;DHT22;24982;52.344;12.990;2023-08-06T01:32:02;18.90;99.90
9662;DHT22;24982;52.344;12.990;2023-08-06T01:35:06;18.80;99.90
9662;DHT22;24982;52.344;12.990;2023-08-06T01:38:10;18.90;99.90
9662;DHT22;24982;52.344;12.990;2023-08-06T01:41:12;18.80;99.90
9662;DHT22;24982;52.344;12.990;2023-08-06T01:44:14;18.80;99.90
9662;DHT22;24982;52.344;12.990;2023-08-06T01:47:16;18.80;99.90
9662;DHT22;24982;52.344;12.990;2023-08-06T01:50:18;18.80;99.90
9662;DHT22;24982;52.344;12.990;2023-08-06T01:53:21;18.80;99.90
9662;DHT22;24982;52.344;12.990;2023-08-06T01:56:23;18.80;99.90
9662;DHT22;24982;52.344;12.990;2023-08-06T01:59:25;18.80;99.90
9662;DHT22;24982;52.344;12.990;2023-08-06T02:02:27;18.80;99.90
9662;DHT22;24982;52.344;12.990;2023-08-06T02:05:29;18.80;99.90
9662;DHT22;24982;52.344;12.990;2023-08-06T02:08:34;18.60;99.90
9662;DHT22;24982;52.344;12.990;2023-08-06T02:11:36;18.80;99.90
9662;DHT22;24982;52.344;12.990;2023-08-06T02:14:38;18.80;99.90
9662;DHT22;24982;52.344;12.990;2023-08-06T02:17:40;18.80;99.90
9662;DHT22;24982;52.344;12.990;2023-08-06T02:20:42;18.80;99.90
9662;DHT22;24982;52.344;12.990;2023-08-06T02:23:45;18.80;99.90
9662;DHT22;24982;52.344;12.990;2023-08-06T02:26:47;18.80;99.90
9662;DHT22;24982;52.344;12.990;2023-08-06T02:29:51;18.80;99.90
9662;DHT22;24982;52.344;12.990;2023-08-06T02:32:53;18.90;99.90
9662;DHT22;24982;52.344;12.990;2023-08-06T02:36:02;18.90;99.90
9662;DHT22;24982;52.344;12.990;2023-08-06T02:39:06;19.00;99.90
9662;DHT22;24982;52.344;12.990;2023-08-06T02:42:08;18.80;99.90
9662;DHT22;24982;52.344;12.990;2023-08-06T02:45:10;18.80;99.90
9662;DHT22;24982;52.344;12.990;2023-08-06T02:48:12;18.80;99.90
9662;DHT22;24982;52.344;12.990;2023-08-06T02:51:15;18.80;99.90
9662;DHT22;24982;52.344;12.990;2023-08-06T02:54:19;18.80;99.90
9662;DHT22;24982;52.344;12.990;2023-08-06T02:57:21;18.80;99.90
9662;DHT22;24982;52.344;12.990;2023-08-06T03:00:25;18.90;99.90
9662;DHT22;24982;52.344;12.990;2023-08-06T03:03:28;18.80;99.90
9662;DHT22;24982;52.344;12.990;2023-08-06T03:06:33;18.80;99.90
9662;DHT22;24982;52.344;12.990;2023-08-06T03:09:38;18.90;99.90
9662;DHT22;24982;52.344;12.990;2023-08-06T03:12:41;18.80;99.90
9662;DHT22;24982;52.344;12.990;2023-08-06T03:15:43;18.80;99.90
9662;DHT22;24982;52.344;12.990;2023-08-06T03:18:47;18.80;99.90
9662;DHT22;24982;52.344;12.990;2023-08-06T03:21:49;18.80;99.90
9662;DHT22;24982;52.344;12.990;2023-08-06T03:24:53;18.60;99.90
9662;DHT22;24982;52.344;12.990;2023-08-06T03:27:57;18.70;99.90
9662;DHT22;24982;52.344;12.990;2023-08-06T03:31:00;18.70;99.90
9662;DHT22;24982;52.344;12.990;2023-08-06T03:34:07;18.70;99.90
9662;DHT22;24982;52.344;12.990;2023-08-06T03:37:09;18.80;99.90
9662;DHT22;24982;52.344;12.990;2023-08-06T03:40:13;18.80;99.90
9662;DHT22;24982;52.344;12.990;2023-08-06T03:43:15;18.80;99.90
9662;DHT22;24982;52.344;12.990;2023-08-06T03:46:17;18.80;99.90
9662;DHT22;24982;52.344;12.990;2023-08-06T03:49:19;18.80;99.90
9662;DHT22;24982;52.344;12.990;2023-08-06T03:52:22;18.80;99.90
9662;DHT22;24982;52.344;12.990;2023-08-06T03:55:25;18.80;99.90
9662;DHT22;24982;52.344;12.990;2023-08-06T03:58:27;18.80;99.90
9662;DHT22;24982;52.344;12.990;2023-08-06T04:01:29;18.80;99.90
9662;DHT22;24982;52.344;12.990;2023-08-06T04:04:31;18.80;99.90
9662;DHT22;24982;52.344;12.990;2023-08-06T04:07:33;18.80;99.90
9662;DHT22;24982;52.344;12.990;2023-08-06T04:10:37;18.80;99.90
9662;DHT22;24982;52.344;12.990;2023-08-06T04:13:42;18.80;99.90
9662;DHT22;24982;52.344;12.990;2023-08-06T04:16:44;18.80;99.90
9662;DHT22;24982;52.344;12.990;2023-08-06T04:19:47;18.80;99.90
9662;DHT22;24982;52.344;12.990;2023-08-06T04:22:49;18.70;99.90
9662;DHT22;24982;52.344;12.990;2023-08-06T04:25:55;18.70;99.90
9662;DHT22;24982;52.344;12.990;2023-08-06T04:28:58;18.70;99.90
9662;DHT22;24982;52.344;12.990;2023-08-06T04:32:02;18.70;99.90
9662;DHT22;24982;52.344;12.990;2023-08-06T04:35:04;18.70;99.90
9662;DHT22;24982;52.344;12.990;2023-08-06T04:38:07;18.70;99.90
9662;DHT22;24982;52.344;12.990;2023-08-06T04:41:10;18.80;99.90
9662;DHT22;24982;52.344;12.990;2023-08-06T04:44:12;18.70;99.90
9662;DHT22;24982;52.344;12.990;2023-08-06T04:47:14;18.70;99.90
9662;DHT22;24982;52.344;12.990;2023-08-06T04:50:16;18.70;99.90
9662;DHT22;24982;52.344;12.990;2023-08-06T04:53:19;18.70;99.90
9662;DHT22;24982;52.344;12.990;2023-08-06T04:56:22;18.70;99.90
9662;DHT22;24982;52.344;12.990;2023-08-06T04:59:24;18.70;99.90
9662;DHT22;24982;52.344;12.990;2023-08-06T05:02:26;18.70;99.90
9662;DHT22;24982;52.344;12.990;2023-08-06T05:05:28;18.60;99.90
9662;DHT22;24982;52.344;12.990;2023-08-06T05:08:30;18.60;99.90
9662;DHT22;24982;52.344;12.990;2023-08-06T05:11:33;18.60;99.90
9662;DHT22;24982;52.344;12.990;2023-08-06T05:14:36;18.60;99.90
9662;DHT22;24982;52.344;12.990;2023-08-06T05:17:38;18.60;99.90
9662;DHT22;24982;52.344;12.990;2023-08-06T05:20:41;18.60;99.90
9662;DHT22;24982;52.344;12.990;2023-08-06T05:23:43;18.60;99.90
9662;DHT22;24982;52.344;12.990;2023-08-06T05:26:47;18.60;99.90
9662;DHT22;24982;52.344;12.990;2023-08-06T05:29:49;18.60;99.90
9662;DHT22;24982;52.344;12.990;2023-08-06T05:32:51;18.60;99.90
9662;DHT22;24982;52.344;12.990;2023-08-06T05:35:53;18.70;99.90
9662;DHT22;24982;52.344;12.990;2023-08-06T05:38:55;18.60;99.90
9662;DHT22;24982;52.344;12.990;2023-08-06T05:41:58;18.60;99.90
9662;DHT22;24982;52.344;12.990;2023-08-06T05:45:00;18.60;99.90
9662;DHT22;24982;52.344;12.990;2023-08-06T05:48:02;18.60;99.90
9662;DHT22;24982;52.344;12.990;2023-08-06T05:51:05;18.60;99.90
9662;DHT22;24982;52.344;12.990;2023-08-06T05:54:08;18.60;99.90
9662;DHT22;24982;52.344;12.990;2023-08-06T05:57:11;18.60;99.90
9662;DHT22;24982;52.344;12.990;2023-08-06T06:00:13;18.60;99.90
9662;DHT22;24982;52.344;12.990;2023-08-06T06:03:15;18.60;99.90
9662;DHT22;24982;52.344;12.990;2023-08-06T06:06:17;18.60;99.90
9662;DHT22;24982;52.344;12.990;2023-08-06T06:09:20;18.50;99.90
9662;DHT22;24982;52.344;12.990;2023-08-06T06:12:24;18.50;99.90
9662;DHT22;24982;52.344;12.990;2023-08-06T06:15:27;18.60;99.90
9662;DHT22;24982;52.344;12.990;2023-08-06T06:18:29;18.60;99.90
9662;DHT22;24982;52.344;12.990;2023-08-06T06:21:31;18.60;99.90
9662;DHT22;24982;52.344;12.990;2023-08-06T06:24:33;18.60;99.90
9662;DHT22;24982;52.344;12.990;2023-08-06T06:27:36;18.80;99.90
9662;DHT22;24982;52.344;12.990;2023-08-06T06:30:38;18.70;99.90
9662;DHT22;24982;52.344;12.990;2023-08-06T06:33:40;18.60;99.90
9662;DHT22;24982;52.344;12.990;2023-08-06T06:36:42;18.60;99.90
9662;DHT22;24982;52.344;12.990;2023-08-06T06:39:44;18.60;99.90
9662;DHT22;24982;52.344;12.990;2023-08-06T06:42:48;18.70;99.90
9662;DHT22;24982;52.344;12.990;2023-08-06T06:45:52;18.60;99.90
9662;DHT22;24982;52.344;12.990;2023-08-06T06:48:55;18.70;99.90
9662;DHT22;24982;52.344;12.990;2023-08-06T06:51:57;18.60;99.90
9662;DHT22;24982;52.344;12.990;2023-08-06T06:54:59;18.50;99.90
9662;DHT22;24982;52.344;12.990;2023-08-06T06:58:02;18.70;99.90
9662;DHT22;24982;52.344;12.990;2023-08-06T07:01:04;18.60;99.90
9662;DHT22;24982;52.344;12.990;2023-08-06T07:04:06;18.60;99.90
9662;DHT22;24982;52.344;12.990;2023-08-06T07:07:08;18.50;99.90
9662;DHT22;24982;52.344;12.990;2023-08-06T07:10:11;18.60;99.90
9662;DHT22;24982;52.344;12.990;2023-08-06T07:13:14;18.60;99.90
9662;DHT22;24982;52.344;12.990;2023-08-06T07:16:17;18.60;99.90
9662;DHT22;24982;52.344;12.990;2023-08-06T07:19:19;18.70;99.90
9662;DHT22;24982;52.344;12.990;2023-08-06T07:22:21;18.60;99.90
9662;DHT22;24982;52.344;12.990;2023-08-06T07:25:23;18.60;99.90
9662;DHT22;24982;52.344;12.990;2023-08-06T07:28:26;18.60;99.90
9662;DHT22;24982;52.344;12.990;2023-08-06T07:31:28;18.60;99.90
9662;DHT22;24982;52.344;12.990;2023-08-06T07:34:30;18.60;99.90
9662;DHT22;24982;52.344;12.990;2023-08-06T07:37:32;18.60;99.90
9662;DHT22;24982;52.344;12.990;2023-08-06T07:40:36;18.60;99.90
9662;DHT22;24982;52.344;12.990;2023-08-06T07:43:39;18.70;99.90
9662;DHT22;24982;52.344;12.990;2023-08-06T07:46:43;18.80;99.90
9662;DHT22;24982;52.344;12.990;2023-08-06T07:49:45;18.80;99.90
9662;DHT22;24982;52.344;12.990;2023-08-06T07:52:47;18.90;99.90
9662;DHT22;24982;52.344;12.990;2023-08-06T07:55:50;18.90;99.90
9662;DHT22;24982;52.344;12.990;2023-08-06T07:58:54;18.90;99.90
9662;DHT22;24982;52.344;12.990;2023-08-06T08:01:56;18.90;99.90
9662;DHT22;24982;52.344;12.990;2023-08-06T08:04:58;18.80;99.90
9662;DHT22;24982;52.344;12.990;2023-08-06T08:08:00;18.90;99.90
9662;DHT22;24982;52.344;12.990;2023-08-06T08:11:02;18.90;99.90
9662;DHT22;24982;52.344;12.990;2023-08-06T08:14:05;18.90;99.90
9662;DHT22;24982;52.344;12.990;2023-08-06T08:17:07;18.60;99.90
9662;DHT22;24982;52.344;12.990;2023-08-06T08:20:10;19.00;99.90
9662;DHT22;24982;52.344;12.990;2023-08-06T08:23:12;19.10;99.90
9662;DHT22;24982;52.344;12.990;2023-08-06T08:26:14;19.10;99.90
9662;DHT22;24982;52.344;12.990;2023-08-06T08:29:17;19.00;99.90
9662;DHT22;24982;52.344;12.990;2023-08-06T08:32:19;19.10;99.90
9662;DHT22;24982;52.344;12.990;2023-08-06T08:35:21;19.10;99.90
9662;DHT22;24982;52.344;12.990;2023-08-06T08:47:25;19.00;99.90
9662;DHT22;24982;52.344;12.990;2023-08-06T08:50:27;18.90;99.90
9662;DHT22;24982;52.344;12.990;2023-08-06T08:53:29;18.90;99.90
9662;DHT22;24982;52.344;12.990;2023-08-06T08:56:32;18.90;99.90
9662;DHT22;24982;52.344;12.990;2023-08-06T08:59:34;18.80;99.90
9662;DHT22;24982;52.344;12.990;2023-08-06T09:02:38;18.80;99.90
9662;DHT22;24982;52.344;12.990;2023-08-06T09:05:44;18.90;99.90
9662;DHT22;24982;52.344;12.990;2023-08-06T09:08:51;19.10;99.90
9662;DHT22;24982;52.344;12.990;2023-08-06T09:12:00;19.10;99.90
9662;DHT22;24982;52.344;12.990;2023-08-06T09:15:02;19.10;99.90
9662;DHT22;24982;52.344;12.990;2023-08-06T09:18:11;19.10;99.90
9662;DHT22;24982;52.344;12.990;2023-08-06T09:21:14;19.20;99.90
9662;DHT22;24982;52.344;12.990;2023-08-06T09:24:16;19.10;99.90
9662;DHT22;24982;52.344;12.990;2023-08-06T09:27:18;19.20;99.90
9662;DHT22;24982;52.344;12.990;2023-08-06T09:30:29;19.20;99.90
9662;DHT22;24982;52.344;12.990;2023-08-06T09:33:36;19.20;99.90
9662;DHT22;24982;52.344;12.990;2023-08-06T09:36:40;19.10;99.90
9662;DHT22;24982;52.344;12.990;2023-08-06T09:39:42;19.20;99.90
9662;DHT22;24982;52.344;12.990;2023-08-06T09:42:44;19.20;99.90
9662;DHT22;24982;52.344;12.990;2023-08-06T09:45:46;19.20;99.90
9662;DHT22;24982;52.344;12.990;2023-08-06T09:48:50;19.20;99.90
9662;DHT22;24982;52.344;12.990;2023-08-06T09:51:52;19.20;99.90
9662;DHT22;24982;52.344;12.990;2023-08-06T09:54:56;19.20;99.90
9662;DHT22;24982;52.344;12.990;2023-08-06T09:57:59;19.10;99.90
9662;DHT22;24982;52.344;12.990;2023-08-06T10:01:01;19.20;99.90
9662;DHT22;24982;52.344;12.990;2023-08-06T10:04:06;19.20;99.90
9662;DHT22;24982;52.344;12.990;2023-08-06T10:07:09;19.20;99.90
9662;DHT22;24982;52.344;12.990;2023-08-06T10:10:11;19.20;99.90
9662;DHT22;24982;52.344;12.990;2023-08-06T10:13:13;19.20;99.90
9662;DHT22;24982;52.344;12.990;2023-08-06T10:16:16;19.20;99.90
9662;DHT22;24982;52.344;12.990;2023-08-06T10:19:21;19.20;99.90
9662;DHT22;24982;52.344;12.990;2023-08-06T10:22:23;19.20;99.90
9662;DHT22;24982;52.344;12.990;2023-08-06T10:25:25;19.20;99.90
9662;DHT22;24982;52.344;12.990;2023-08-06T10:28:34;19.20;99.90
9662;DHT22;24982;52.344;12.990;2023-08-06T10:31:55;19.10;99.90
9662;DHT22;24982;52.344;12.990;2023-08-06T10:34:59;19.20;99.90
9662;DHT22;24982;52.344;12.990;2023-08-06T10:38:05;19.20;99.90
9662;DHT22;24982;52.344;12.990;2023-08-06T10:41:15;19.20;99.90
9662;DHT22;24982;52.344;12.990;2023-08-06T10:44:17;19.20;99.90
9662;DHT22;24982;52.344;12.990;2023-08-06T10:47:26;19.40;99.90
9662;DHT22;24982;52.344;12.990;2023-08-06T10:50:30;19.30;99.90
9662;DHT22;24982;52.344;12.990;2023-08-06T10:53:33;19.40;99.90
9662;DHT22;24982;52.344;12.990;2023-08-06T10:56:40;19.40;99.90
9662;DHT22;24982;52.344;12.990;2023-08-06T10:59:42;19.40;99.90
9662;DHT22;24982;52.344;12.990;2023-08-06T11:02:47;19.40;99.90
9662;DHT22;24982;52.344;12.990;2023-08-06T11:05:51;19.40;99.90
9662;DHT22;24982;52.344;12.990;2023-08-06T11:08:53;19.30;99.90
9662;DHT22;24982;52.344;12.990;2023-08-06T11:11:56;19.40;99.90
9662;DHT22;24982;52.344;12.990;2023-08-06T11:14:58;19.30;99.90
9662;DHT22;24982;52.344;12.990;2023-08-06T11:18:00;19.40;99.90
9662;DHT22;24982;52.344;12.990;2023-08-06T11:21:04;19.50;99.90
9662;DHT22;24982;52.344;12.990;2023-08-06T11:24:06;19.60;99.90
9662;DHT22;24982;52.344;12.990;2023-08-06T11:27:12;19.50;99.90
9662;DHT22;24982;52.344;12.990;2023-08-06T11:30:14;19.50;99.90
9662;DHT22;24982;52.344;12.990;2023-08-06T11:33:20;19.50;99.90
9662;DHT22;24982;52.344;12.990;2023-08-06T11:36:30;19.50;99.90
9662;DHT22;24982;52.344;12.990;2023-08-06T11:39:34;19.50;99.90
9662;DHT22;24982;52.344;12.990;2023-08-06T11:42:36;19.50;99.90
9662;DHT22;24982;52.344;12.990;2023-08-06T11:45:38;19.40;99.90
9662;DHT22;24982;52.344;12.990;2023-08-06T11:48:51;19.50;99.90
9662;DHT22;24982;52.344;12.990;2023-08-06T11:51:55;19.60;99.90
9662;DHT22;24982;52.344;12.990;2023-08-06T11:55:01;19.60;99.90
9662;DHT22;24982;52.344;12.990;2023-08-06T11:58:07;19.50;99.90
9662;DHT22;24982;52.344;12.990;2023-08-06T12:01:09;19.60;99.90
9662;DHT22;24982;52.344;12.990;2023-08-06T12:04:11;19.60;99.90
9662;DHT22;24982;52.344;12.990;2023-08-06T12:07:15;19.60;99.90
9662;DHT22;24982;52.344;12.990;2023-08-06T12:10:19;19.70;99.90
9662;DHT22;24982;52.344;12.990;2023-08-06T12:13:21;19.70;99.90
9662;DHT22;24982;52.344;12.990;2023-08-06T12:16:23;19.70;99.90
9662;DHT22;24982;52.344;12.990;2023-08-06T12:19:25;19.70;99.90
9662;DHT22;24982;52.344;12.990;2023-08-06T12:22:28;19.80;99.90
9662;DHT22;24982;52.344;12.990;2023-08-06T12:25:33;19.70;99.90
9662;DHT22;24982;52.344;12.990;2023-08-06T12:28:35;19.70;99.90
9662;DHT22;24982;52.344;12.990;2023-08-06T12:31:37;19.70;99.90
9662;DHT22;24982;52.344;12.990;2023-08-06T12:34:39;19.70;99.90
9662;DHT22;24982;52.344;12.990;2023-08-06T12:37:43;19.70;99.90
9662;DHT22;24982;52.344;12.990;2023-08-06T12:40:46;20.10;99.90
9662;DHT22;24982;52.344;12.990;2023-08-06T12:43:48;19.80;99.90
9662;DHT22;24982;52.344;12.990;2023-08-06T12:46:50;19.70;99.90
9662;DHT22;24982;52.344;12.990;2023-08-06T12:49:52;19.70;99.90
9662;DHT22;24982;52.344;12.990;2023-08-06T12:52:56;19.70;99.90
9662;DHT22;24982;52.344;12.990;2023-08-06T12:55:58;19.70;99.90
9662;DHT22;24982;52.344;12.990;2023-08-06T12:59:00;19.70;99.90
9662;DHT22;24982;52.344;12.990;2023-08-06T13:02:02;19.70;99.90
9662;DHT22;24982;52.344;12.990;2023-08-06T13:05:04;19.70;99.90
9662;DHT22;24982;52.344;12.990;2023-08-06T13:08:08;19.70;99.90
9662;DHT22;24982;52.344;12.990;2023-08-06T13:11:10;19.70;99.90
9662;DHT22;24982;52.344;12.990;2023-08-06T13:14:13;19.70;99.90
9662;DHT22;24982;52.344;12.990;2023-08-06T13:17:15;19.70;99.90
9662;DHT22;24982;52.344;12.990;2023-08-06T13:20:17;19.70;99.90
9662;DHT22;24982;52.344;12.990;2023-08-06T13:23:21;19.60;99.90
9662;DHT22;24982;52.344;12.990;2023-08-06T13:26:23;19.60;99.90
9662;DHT22;24982;52.344;12.990;2023-08-06T13:29:26;19.70;99.90
9662;DHT22;24982;52.344;12.990;2023-08-06T13:32:28;19.70;99.90
9662;DHT22;24982;52.344;12.990;2023-08-06T13:35:30;19.70;99.90
9662;DHT22;24982;52.344;12.990;2023-08-06T13:38:33;19.80;99.90
9662;DHT22;24982;52.344;12.990;2023-08-06T13:41:37;19.80;99.90
9662;DHT22;24982;52.344;12.990;2023-08-06T13:44:39;19.80;99.90
9662;DHT22;24982;52.344;12.990;2023-08-06T13:47:41;19.80;99.90
9662;DHT22;24982;52.344;12.990;2023-08-06T13:50:43;19.80;99.90
9662;DHT22;24982;52.344;12.990;2023-08-06T13:53:46;19.80;99.90
9662;DHT22;24982;52.344;12.990;2023-08-06T13:56:48;19.90;99.90
9662;DHT22;24982;52.344;12.990;2023-08-06T13:59:51;19.80;99.90
9662;DHT22;24982;52.344;12.990;2023-08-06T14:02:53;19.70;99.90
9662;DHT22;24982;52.344;12.990;2023-08-06T14:05:55;19.50;99.90
9662;DHT22;24982;52.344;12.990;2023-08-06T14:08:59;19.50;99.90
9662;DHT22;24982;52.344;12.990;2023-08-06T14:12:01;19.40;99.90
9662;DHT22;24982;52.344;12.990;2023-08-06T14:15:04;19.40;99.90
9662;DHT22;24982;52.344;12.990;2023-08-06T14:18:06;19.40;99.90
9662;DHT22;24982;52.344;12.990;2023-08-06T14:21:08;19.30;99.90
9662;DHT22;24982;52.344;12.990;2023-08-06T14:24:12;19.30;99.90
9662;DHT22;24982;52.344;12.990;2023-08-06T14:27:14;19.20;99.90
9662;DHT22;24982;52.344;12.990;2023-08-06T14:30:16;19.30;99.90
9662;DHT22;24982;52.344;12.990;2023-08-06T14:33:18;19.30;99.90
9662;DHT22;24982;52.344;12.990;2023-08-06T14:36:20;19.40;99.90
9662;DHT22;24982;52.344;12.990;2023-08-06T14:39:23;19.30;99.90
9662;DHT22;24982;52.344;12.990;2023-08-06T14:42:25;19.30;99.90
9662;DHT22;24982;52.344;12.990;2023-08-06T14:45:27;19.30;99.90
9662;DHT22;24982;52.344;12.990;2023-08-06T14:48:30;19.30;99.90
9662;DHT22;24982;52.344;12.990;2023-08-06T14:51:32;19.20;99.90
9662;DHT22;24982;52.344;12.990;2023-08-06T14:54:35;19.20;99.90
9662;DHT22;24982;52.344;12.990;2023-08-06T14:57:37;19.20;99.90
9662;DHT22;24982;52.344;12.990;2023-08-06T15:00:39;19.20;99.90
9662;DHT22;24982;52.344;12.990;2023-08-06T15:03:41;19.20;99.90
9662;DHT22;24982;52.344;12.990;2023-08-06T15:06:43;19.20;99.90
9662;DHT22;24982;52.344;12.990;2023-08-06T15:09:46;19.20;99.90
9662;DHT22;24982;52.344;12.990;2023-08-06T15:12:49;19.20;99.90
9662;DHT22;24982;52.344;12.990;2023-08-06T15:15:50;19.10;99.90
9662;DHT22;24982;52.344;12.990;2023-08-06T15:18:53;19.10;99.90
9662;DHT22;24982;52.344;12.990;2023-08-06T15:21:55;19.10;99.90
9662;DHT22;24982;52.344;12.990;2023-08-06T15:24:59;19.10;99.90
9662;DHT22;24982;52.344;12.990;2023-08-06T15:28:01;19.20;99.90
9662;DHT22;24982;52.344;12.990;2023-08-06T15:31:03;19.30;99.90
9662;DHT22;24982;52.344;12.990;2023-08-06T15:34:06;19.30;99.90
9662;DHT22;24982;52.344;12.990;2023-08-06T15:37:08;19.30;99.90
9662;DHT22;24982;52.344;12.990;2023-08-06T15:40:12;19.30;99.90
9662;DHT22;24982;52.344;12.990;2023-08-06T15:43:14;19.20;99.90
9662;DHT22;24982;52.344;12.990;2023-08-06T15:46:16;19.20;99.90
9662;DHT22;24982;52.344;12.990;2023-08-06T15:49:18;19.10;99.90
9662;DHT22;24982;52.344;12.990;2023-08-06T15:52:20;19.40;99.90
9662;DHT22;24982;52.344;12.990;2023-08-06T15:55:23;19.10;99.90
9662;DHT22;24982;52.344;12.990;2023-08-06T15:58:25;19.10;99.90
9662;DHT22;24982;52.344;12.990;2023-08-06T16:01:27;19.10;99.90
9662;DHT22;24982;52.344;12.990;2023-08-06T16:04:30;19.10;99.90
9662;DHT22;24982;52.344;12.990;2023-08-06T16:07:32;19.00;99.90
9662;DHT22;24982;52.344;12.990;2023-08-06T16:10:36;19.00;99.90
9662;DHT22;24982;52.344;12.990;2023-08-06T16:13:38;18.90;99.90
9662;DHT22;24982;52.344;12.990;2023-08-06T16:16:40;18.90;99.90
9662;DHT22;24982;52.344;12.990;2023-08-06T16:19:43;18.90;99.90
9662;DHT22;24982;52.344;12.990;2023-08-06T16:22:45;18.80;99.90
9662;DHT22;24982;52.344;12.990;2023-08-06T16:25:48;18.60;99.90
9662;DHT22;24982;52.344;12.990;2023-08-06T16:28:50;18.70;99.90
9662;DHT22;24982;52.344;12.990;2023-08-06T16:31:52;18.70;99.90
9662;DHT22;24982;52.344;12.990;2023-08-06T16:34:54;18.70;99.90
9662;DHT22;24982;52.344;12.990;2023-08-06T16:37:56;18.60;99.90
9662;DHT22;24982;52.344;12.990;2023-08-06T16:41:00;18.50;99.90
9662;DHT22;24982;52.344;12.990;2023-08-06T16:44:04;18.50;99.90
9662;DHT22;24982;52.344;12.990;2023-08-06T16:47:08;18.70;99.90
9662;DHT22;24982;52.344;12.990;2023-08-06T16:50:10;18.60;99.90
9662;DHT22;24982;52.344;12.990;2023-08-06T16:53:14;18.50;99.90
9662;DHT22;24982;52.344;12.990;2023-08-06T16:56:17;18.50;99.90
9662;DHT22;24982;52.344;12.990;2023-08-06T16:59:19;18.40;99.90
9662;DHT22;24982;52.344;12.990;2023-08-06T17:02:21;18.50;99.90
9662;DHT22;24982;52.344;12.990;2023-08-06T17:05:23;18.50;99.90
9662;DHT22;24982;52.344;12.990;2023-08-06T17:08:25;18.60;99.90
9662;DHT22;24982;52.344;12.990;2023-08-06T17:11:31;18.60;99.90
9662;DHT22;24982;52.344;12.990;2023-08-06T17:14:33;18.40;99.90
9662;DHT22;24982;52.344;12.990;2023-08-06T17:17:35;18.30;99.90
9662;DHT22;24982;52.344;12.990;2023-08-06T17:20:40;18.10;99.90
9662;DHT22;24982;52.344;12.990;2023-08-06T17:23:42;18.20;99.90
9662;DHT22;24982;52.344;12.990;2023-08-06T17:26:46;18.10;99.90
9662;DHT22;24982;52.344;12.990;2023-08-06T17:29:48;18.20;99.90
9662;DHT22;24982;52.344;12.990;2023-08-06T17:32:50;18.30;99.90
9662;DHT22;24982;52.344;12.990;2023-08-06T17:35:52;18.30;99.90
9662;DHT22;24982;52.344;12.990;2023-08-06T17:38:53;18.40;99.90
9662;DHT22;24982;52.344;12.990;2023-08-06T17:41:57;18.40;99.90
9662;DHT22;24982;52.344;12.990;2023-08-06T17:45:01;18.20;99.90
9662;DHT22;24982;52.344;12.990;2023-08-06T17:48:04;18.40;99.90
9662;DHT22;24982;52.344;12.990;2023-08-06T17:51:06;18.40;99.90
9662;DHT22;24982;52.344;12.990;2023-08-06T17:54:08;18.40;99.90
9662;DHT22;24982;52.344;12.990;2023-08-06T17:57:11;18.40;99.90
9662;DHT22;24982;52.344;12.990;2023-08-06T18:00:14;18.40;99.90
9662;DHT22;24982;52.344;12.990;2023-08-06T18:03:18;18.40;99.90
9662;DHT22;24982;52.344;12.990;2023-08-06T18:06:20;18.50;99.90
9662;DHT22;24982;52.344;12.990;2023-08-06T18:09:22;18.40;99.90
9662;DHT22;24982;52.344;12.990;2023-08-06T18:12:25;18.40;99.90
9662;DHT22;24982;52.344;12.990;2023-08-06T18:15:27;18.50;99.90
9662;DHT22;24982;52.344;12.990;2023-08-06T18:18:29;18.40;99.90
9662;DHT22;24982;52.344;12.990;2023-08-06T18:21:31;18.40;99.90
9662;DHT22;24982;52.344;12.990;2023-08-06T18:24:33;18.40;99.90
9662;DHT22;24982;52.344;12.990;2023-08-06T18:27:36;18.50;99.90
9662;DHT22;24982;52.344;12.990;2023-08-06T18:30:39;18.30;99.90
9662;DHT22;24982;52.344;12.990;2023-08-06T18:33:41;18.50;99.90
9662;DHT22;24982;52.344;12.990;2023-08-06T18:36:43;18.50;99.90
9662;DHT22;24982;52.344;12.990;2023-08-06T18:39:47;18.40;99.90
9662;DHT22;24982;52.344;12.990;2023-08-06T18:42:51;18.40;99.90
9662;DHT22;24982;52.344;12.990;2023-08-06T18:45:53;18.40;99.90
9662;DHT22;24982;52.344;12.990;2023-08-06T18:48:55;18.50;99.90
9662;DHT22;24982;52.344;12.990;2023-08-06T18:51:57;18.50;99.90
9662;DHT22;24982;52.344;12.990;2023-08-06T18:54:58;18.50;99.90
9662;DHT22;24982;52.344;12.990;2023-08-06T18:58:02;18.50;99.90
9662;DHT22;24982;52.344;12.990;2023-08-06T19:01:04;18.40;99.90
9662;DHT22;24982;52.344;12.990;2023-08-06T19:04:06;18.60;99.90
9662;DHT22;24982;52.344;12.990;2023-08-06T19:07:08;18.40;99.90
9662;DHT22;24982;52.344;12.990;2023-08-06T19:10:10;18.40;99.90
9662;DHT22;24982;52.344;12.990;2023-08-06T19:13:14;18.30;99.90
9662;DHT22;24982;52.344;12.990;2023-08-06T19:16:16;18.40;99.90
9662;DHT22;24982;52.344;12.990;2023-08-06T19:19:19;18.40;99.90
9662;DHT22;24982;52.344;12.990;2023-08-06T19:22:21;18.50;99.90